createdAt,value
2019-01-21T00:00:13.878Z,-5.19
2019-01-21T00:02:42.255Z,-5.40
2019-01-21T00:05:10.807Z,-5.33
2019-01-21T00:07:39.334Z,-5.28
2019-01-21T00:10:08.674Z,-5.22
2019-01-21T00:12:37.070Z,-5.18
2019-01-21T00:15:08.150Z,-5.19
2019-01-21T00:17:36.526Z,-5.13
2019-01-21T00:20:06.771Z,-4.96
2019-01-21T00:22:35.233Z,-5.03
2019-01-21T00:25:04.194Z,-5.10
2019-01-21T00:27:32.717Z,-4.91
2019-01-21T00:30:01.122Z,-4.85
2019-01-21T00:32:29.496Z,-4.81
2019-01-21T00:34:57.892Z,-4.73
2019-01-21T00:37:26.344Z,-4.75
2019-01-21T00:39:54.736Z,-4.58
2019-01-21T00:42:23.255Z,-4.48
2019-01-21T00:44:51.766Z,-4.44
2019-01-21T00:47:20.153Z,-4.66
2019-01-21T00:49:48.554Z,-4.77
2019-01-21T00:52:16.932Z,-4.73
2019-01-21T00:54:45.387Z,-4.88
2019-01-21T00:57:13.770Z,-4.84
2019-01-21T00:59:42.247Z,-4.64
2019-01-21T01:02:10.631Z,-4.39
2019-01-21T01:04:39.034Z,-4.12
2019-01-21T01:07:07.422Z,-4.13
2019-01-21T01:09:35.819Z,-4.26
2019-01-21T01:12:04.275Z,-4.27
2019-01-21T01:14:32.666Z,-4.37
2019-01-21T01:17:01.045Z,-4.49
2019-01-21T01:19:29.468Z,-4.44
2019-01-21T01:21:57.849Z,-4.55
2019-01-21T01:24:26.234Z,-4.51
2019-01-21T01:26:54.623Z,-4.58
2019-01-21T01:29:23.001Z,-4.60
2019-01-21T01:31:51.467Z,-4.61
2019-01-21T01:34:19.850Z,-4.45
2019-01-21T01:36:48.240Z,-4.58
2019-01-21T01:39:16.626Z,-4.65
2019-01-21T01:41:45.017Z,-4.70
2019-01-21T01:44:13.443Z,-4.55
2019-01-21T01:46:42.114Z,-4.74
2019-01-21T01:49:10.863Z,-4.63
2019-01-21T01:51:39.257Z,-4.53
2019-01-21T01:54:07.644Z,-4.32
2019-01-21T01:56:36.036Z,-4.30
2019-01-21T01:59:04.483Z,-4.31
2019-01-21T02:01:32.882Z,-4.30
2019-01-21T02:04:01.276Z,-4.38
2019-01-21T02:06:29.675Z,-4.46
2019-01-21T02:08:58.065Z,-4.62
2019-01-21T02:11:26.477Z,-4.45
2019-01-21T02:13:55.144Z,-4.27
2019-01-21T02:16:23.542Z,-4.06
2019-01-21T02:18:51.953Z,-3.84
2019-01-21T02:21:23.132Z,-3.89
2019-01-21T02:23:54.295Z,-3.89
2019-01-21T02:26:25.043Z,-3.72
2019-01-21T02:29:07.977Z,-3.38
2019-01-21T02:31:51.301Z,-3.26
2019-01-21T02:34:28.700Z,-3.31
2019-01-21T02:37:00.141Z,-3.41
2019-01-21T02:39:37.552Z,-3.27
2019-01-21T02:42:17.539Z,-3.14
2019-01-21T02:45:06.900Z,-2.87
2019-01-21T02:47:47.463Z,-2.95
2019-01-21T02:50:33.821Z,-2.83
2019-01-21T02:53:14.277Z,-3.13
2019-01-21T02:55:51.406Z,-3.50
2019-01-21T02:58:39.526Z,-3.38
2019-01-21T03:01:44.424Z,-3.25
2019-01-21T03:04:40.292Z,-3.36
2019-01-21T03:07:26.959Z,-3.52
2019-01-21T03:10:16.561Z,-3.57
2019-01-21T03:13:00.229Z,-3.87
2019-01-21T03:15:37.789Z,-3.80
2019-01-21T03:18:20.989Z,-3.99
2019-01-21T03:21:04.280Z,-4.08
2019-01-21T03:23:50.782Z,-3.90
2019-01-21T03:26:24.741Z,-4.11
2019-01-21T03:29:05.400Z,-4.08
2019-01-21T03:32:06.959Z,-4.16
2019-01-21T03:34:50.237Z,-4.29
2019-01-21T03:37:27.166Z,-4.20
2019-01-21T03:40:30.695Z,-4.26
2019-01-21T03:43:04.776Z,-3.92
2019-01-21T03:45:50.568Z,-3.72
2019-01-21T03:48:24.844Z,-3.45
2019-01-21T03:51:02.187Z,-3.45
2019-01-21T03:53:36.438Z,-3.27
2019-01-21T03:56:07.161Z,-3.41
2019-01-21T03:58:59.416Z,-3.32
2019-01-21T04:01:30.857Z,-3.37
2019-01-21T04:04:04.947Z,-3.23
2019-01-21T04:06:45.607Z,-3.32
2019-01-21T04:09:44.438Z,-3.43
2019-01-21T04:12:18.735Z,-3.46
2019-01-21T04:15:07.434Z,-3.62
2019-01-21T04:18:01.803Z,-3.85
2019-01-21T04:20:38.541Z,-3.84
2019-01-21T04:23:38.888Z,-4.14
2019-01-21T04:26:26.772Z,-3.92
2019-01-21T04:28:58.222Z,-3.77
2019-01-21T04:31:32.582Z,-3.66
2019-01-21T04:34:27.926Z,-3.60
2019-01-21T04:37:18.489Z,-3.59
2019-01-21T04:39:58.903Z,-3.67
2019-01-21T04:42:42.023Z,-3.82
2019-01-21T04:45:25.416Z,-3.73
2019-01-21T04:48:13.612Z,-3.68
2019-01-21T04:50:50.764Z,-3.70
2019-01-21T04:53:37.322Z,-3.75
2019-01-21T04:56:14.413Z,-4.06
2019-01-21T04:58:48.741Z,-4.19
2019-01-21T05:01:20.195Z,-4.22
2019-01-21T05:04:08.118Z,-4.11
2019-01-21T05:06:56.465Z,-4.10
2019-01-21T05:09:33.574Z,-3.89
2019-01-21T05:12:17.075Z,-4.06
2019-01-21T05:14:54.408Z,-3.97
2019-01-21T05:17:25.835Z,-3.86
2019-01-21T05:20:12.632Z,-4.00
2019-01-21T05:23:02.253Z,-3.96
2019-01-21T05:25:42.670Z,-3.89
2019-01-21T05:28:35.441Z,-3.85
2019-01-21T05:31:15.725Z,-4.00
2019-01-21T05:33:50.077Z,-3.94
2019-01-21T05:36:39.021Z,-3.85
2019-01-21T05:39:10.740Z,-3.95
2019-01-21T05:41:54.309Z,-3.91
2019-01-21T05:44:34.570Z,-3.80
2019-01-21T05:47:11.663Z,-3.76
2019-01-21T05:50:03.962Z,-3.76
2019-01-21T05:52:41.183Z,-3.85
2019-01-21T05:55:15.325Z,-3.69
2019-01-21T05:57:58.734Z,-3.75
2019-01-21T06:00:49.686Z,-3.66
2019-01-21T06:03:29.906Z,-3.73
2019-01-21T06:06:01.351Z,-3.86
2019-01-21T06:09:01.523Z,-3.97
2019-01-21T06:11:38.265Z,-4.03
2019-01-21T06:14:12.258Z,-4.21
2019-01-21T06:16:51.976Z,-4.19
2019-01-21T06:19:41.609Z,-4.15
2019-01-21T06:22:18.918Z,-4.06
2019-01-21T06:24:53.263Z,-4.06
2019-01-21T06:27:30.339Z,-4.16
2019-01-21T06:30:04.924Z,-4.15
2019-01-21T06:33:06.732Z,-4.10
2019-01-21T06:36:04.045Z,-4.10
2019-01-21T06:38:50.592Z,-4.10
2019-01-21T06:41:40.075Z,-4.20
2019-01-21T06:44:22.858Z,-4.28
2019-01-21T06:46:54.308Z,-4.33
2019-01-21T06:49:42.570Z,-4.43
2019-01-21T06:52:37.939Z,-4.38
2019-01-21T06:55:14.939Z,-4.48
2019-01-21T06:58:02.857Z,-4.42
2019-01-21T07:00:56.890Z,-4.40
2019-01-21T07:03:33.886Z,-4.50
2019-01-21T07:06:37.049Z,-4.47
2019-01-21T07:09:11.500Z,-4.41
2019-01-21T07:11:57.954Z,-4.30
2019-01-21T07:14:49.241Z,-4.31
2019-01-21T07:17:29.756Z,-4.35
2019-01-21T07:20:24.167Z,-4.33
2019-01-21T07:23:01.244Z,-4.51
2019-01-21T07:26:07.427Z,-4.56
2019-01-21T07:28:56.891Z,-4.64
2019-01-21T07:31:40.328Z,-4.67
2019-01-21T07:34:28.253Z,-4.72
2019-01-21T07:37:16.457Z,-4.57
2019-01-21T07:40:00.234Z,-4.57
2019-01-21T07:42:55.632Z,-4.50
2019-01-21T07:45:42.098Z,-4.46
2019-01-21T07:48:25.700Z,-4.39
2019-01-21T07:51:00.040Z,-4.39
2019-01-21T07:53:34.265Z,-4.25
2019-01-21T07:56:14.498Z,-4.18
2019-01-21T07:58:48.656Z,-4.08
2019-01-21T08:01:28.492Z,-3.98
2019-01-21T08:04:27.215Z,-3.90
2019-01-21T08:07:07.432Z,-3.93
2019-01-21T08:09:58.309Z,-3.80
2019-01-21T08:12:46.212Z,-3.77
2019-01-21T08:15:29.658Z,-3.17
2019-01-21T08:18:16.197Z,-2.27
2019-01-21T08:20:50.185Z,-1.34
2019-01-21T08:23:21.630Z,-0.30
2019-01-21T08:25:53.059Z,0.43
2019-01-21T08:28:42.454Z,1.04
2019-01-21T08:31:26.202Z,1.46
2019-01-21T08:34:09.687Z,2.64
2019-01-21T08:36:46.725Z,3.20
2019-01-21T08:39:26.844Z,3.52
2019-01-21T08:42:13.590Z,3.65
2019-01-21T08:44:53.764Z,3.18
2019-01-21T08:47:30.915Z,3.67
2019-01-21T08:50:08.030Z,3.25
2019-01-21T08:52:45.306Z,3.27
2019-01-21T08:55:45.637Z,3.49
2019-01-21T08:58:32.113Z,4.27
2019-01-21T09:01:26.220Z,5.49
2019-01-21T09:04:06.171Z,6.14
2019-01-21T09:06:40.122Z,6.81
2019-01-21T09:09:23.353Z,6.84
2019-01-21T09:12:14.219Z,7.16
2019-01-21T09:14:53.889Z,7.45
2019-01-21T09:17:40.369Z,7.56
2019-01-21T09:20:17.617Z,7.96
2019-01-21T09:22:52.015Z,8.60
2019-01-21T09:25:32.341Z,9.14
2019-01-21T09:28:35.726Z,9.72
2019-01-21T09:31:23.461Z,10.29
2019-01-21T09:34:09.862Z,10.38
2019-01-21T09:36:49.614Z,9.75
2019-01-21T09:39:21.105Z,10.09
2019-01-21T09:42:14.496Z,9.90
2019-01-21T09:44:45.941Z,10.20
2019-01-21T09:47:13.184Z,10.44
2019-01-21T09:49:43.820Z,10.74
2019-01-21T09:52:13.687Z,10.75
2019-01-21T09:54:42.307Z,10.69
2019-01-21T09:57:10.754Z,10.89
2019-01-21T09:59:39.142Z,11.23
2019-01-21T10:02:07.528Z,11.36
2019-01-21T10:04:38.969Z,11.33
2019-01-21T10:07:30.957Z,11.20
2019-01-21T10:10:05.600Z,11.23
2019-01-21T10:12:46.200Z,11.05
2019-01-21T10:15:30.110Z,11.27
2019-01-21T10:18:07.588Z,11.42
2019-01-21T10:20:44.717Z,11.59
2019-01-21T10:23:32.701Z,11.43
2019-01-21T10:26:12.947Z,11.30
2019-01-21T10:28:47.021Z,10.98
2019-01-21T10:31:27.286Z,11.25
2019-01-21T10:34:07.336Z,10.55
2019-01-21T10:36:38.785Z,10.05
2019-01-21T10:39:34.053Z,10.00
2019-01-21T10:42:14.430Z,9.74
2019-01-21T10:45:00.666Z,9.76
2019-01-21T10:47:37.424Z,9.56
2019-01-21T10:50:23.226Z,9.45
2019-01-21T10:53:02.907Z,8.96
2019-01-21T10:55:56.117Z,8.56
2019-01-21T10:58:30.378Z,7.80
2019-01-21T11:01:35.366Z,7.27
2019-01-21T11:04:21.903Z,7.26
2019-01-21T11:07:21.324Z,7.83
2019-01-21T11:10:04.530Z,7.62
2019-01-21T11:12:45.179Z,8.27
2019-01-21T11:15:19.491Z,7.95
2019-01-21T11:17:53.444Z,7.92
2019-01-21T11:20:41.704Z,7.75
2019-01-21T11:23:29.707Z,7.69
2019-01-21T11:26:25.140Z,7.17
2019-01-21T11:28:59.611Z,7.33
2019-01-21T11:31:37.121Z,7.79
2019-01-21T11:34:44.089Z,7.10
2019-01-21T11:37:52.439Z,6.87
2019-01-21T11:41:00.730Z,6.28
2019-01-21T11:44:09.030Z,5.86
2019-01-21T11:47:17.379Z,5.68
2019-01-21T11:50:24.345Z,4.89
2019-01-21T11:53:32.711Z,4.17
2019-01-21T11:56:39.718Z,3.81
2019-01-21T11:59:46.694Z,3.39
2019-01-21T12:02:53.732Z,2.92
2019-01-21T12:06:02.030Z,2.39
2019-01-21T12:15:10.306Z,2.04
2019-01-21T12:18:17.300Z,2.36
2019-01-21T12:21:24.284Z,2.53
2019-01-21T12:24:32.660Z,2.59
2019-01-21T12:27:39.679Z,2.69
2019-01-21T12:30:48.048Z,2.57
2019-01-21T12:33:56.409Z,2.46
2019-01-21T12:37:04.797Z,2.74
2019-01-21T12:40:13.121Z,2.63
2019-01-21T12:43:21.451Z,2.27
2019-01-21T12:46:28.454Z,2.26
2019-01-21T12:49:35.441Z,2.47
2019-01-21T12:52:43.939Z,2.40
2019-01-21T12:55:50.932Z,2.54
2019-01-21T12:58:57.941Z,2.87
2019-01-21T13:02:06.310Z,2.95
2019-01-21T13:05:13.468Z,2.90
2019-01-21T13:08:21.857Z,2.83
2019-01-21T13:11:28.836Z,2.92
2019-01-21T13:14:37.226Z,3.06
2019-01-21T13:17:45.532Z,2.99
2019-01-21T13:20:53.984Z,3.07
2019-01-21T13:24:02.343Z,3.32
2019-01-21T13:27:10.633Z,3.03
2019-01-21T13:30:18.928Z,2.94
2019-01-21T13:33:25.905Z,3.01
2019-01-21T13:36:32.887Z,2.93
2019-01-21T13:39:41.199Z,3.04
2019-01-21T13:42:49.722Z,3.06
2019-01-21T13:45:56.725Z,3.24
2019-01-21T13:49:03.700Z,3.09
2019-01-21T13:52:10.675Z,2.92
2019-01-21T13:55:17.656Z,2.75
2019-01-21T13:58:26.009Z,2.58
2019-01-21T14:01:32.986Z,2.47
2019-01-21T14:04:39.971Z,2.13
2019-01-21T14:07:46.960Z,2.36
2019-01-21T14:10:55.269Z,2.35
2019-01-21T14:14:03.611Z,2.24
2019-01-21T14:17:11.921Z,2.27
2019-01-21T14:20:20.355Z,2.16
2019-01-21T14:23:28.720Z,2.30
2019-01-21T14:26:35.699Z,2.19
2019-01-21T14:29:42.670Z,2.22
2019-01-21T14:32:51.094Z,2.15
2019-01-21T14:36:00.478Z,2.44
2019-01-21T14:39:09.648Z,2.51
2019-01-21T14:42:17.981Z,2.43
2019-01-21T14:45:24.968Z,2.56
2019-01-21T14:48:33.256Z,2.66
2019-01-21T14:51:40.248Z,2.89
2019-01-21T14:54:48.520Z,2.98
2019-01-21T14:57:55.512Z,2.92
2019-01-21T15:01:02.542Z,2.70
2019-01-21T15:04:09.457Z,2.78
2019-01-21T15:07:17.764Z,2.87
2019-01-21T15:10:26.091Z,2.71
2019-01-21T15:13:33.017Z,2.71
2019-01-21T15:16:41.379Z,2.66
2019-01-21T15:19:49.758Z,2.59
2019-01-21T15:22:58.284Z,2.72
2019-01-21T15:26:06.737Z,2.66
2019-01-21T15:29:15.069Z,2.73
2019-01-21T15:32:23.533Z,2.74
2019-01-21T15:35:30.592Z,2.79
2019-01-21T15:38:38.911Z,2.79
2019-01-21T15:41:45.889Z,2.86
2019-01-21T15:44:54.176Z,2.67
2019-01-21T15:48:02.485Z,2.52
2019-01-21T15:51:09.458Z,2.47
2019-01-21T15:54:17.753Z,2.37
2019-01-21T15:57:24.732Z,2.09
2019-01-21T16:00:33.075Z,2.05
2019-01-21T16:03:41.381Z,2.09
2019-01-21T16:06:49.656Z,2.11
2019-01-21T16:09:56.640Z,2.19
2019-01-21T16:13:03.623Z,2.40
2019-01-21T16:16:10.598Z,2.19
2019-01-21T16:19:17.588Z,2.33
2019-01-21T16:22:24.621Z,2.45
2019-01-21T16:25:32.903Z,2.29
2019-01-21T16:28:39.892Z,2.12
2019-01-21T16:31:48.179Z,2.06
2019-01-21T16:34:55.163Z,2.29
2019-01-21T16:38:03.521Z,2.31
2019-01-21T16:41:11.809Z,2.30
2019-01-21T16:43:40.199Z,2.27
2019-01-21T16:46:08.595Z,2.37
2019-01-21T16:48:36.997Z,2.24
2019-01-21T16:51:05.529Z,2.13
2019-01-21T16:53:33.915Z,2.06
2019-01-21T16:56:02.305Z,1.95
2019-01-21T16:58:30.688Z,2.01
2019-01-21T17:00:59.075Z,2.11
2019-01-21T17:03:27.536Z,2.16
2019-01-21T17:05:55.926Z,2.20
2019-01-21T17:08:24.303Z,2.26
2019-01-21T17:10:52.694Z,2.15
2019-01-21T17:13:21.088Z,1.85
2019-01-21T17:15:49.467Z,2.06
2019-01-21T17:18:17.866Z,2.20
2019-01-21T17:20:46.242Z,2.30
2019-01-21T17:23:14.667Z,2.32
2019-01-21T17:25:43.049Z,2.34
2019-01-21T17:28:11.430Z,2.30
2019-01-21T17:30:39.824Z,2.42
2019-01-21T17:33:08.201Z,2.43
2019-01-21T17:35:36.587Z,2.41
2019-01-21T17:38:05.138Z,2.34
2019-01-21T17:40:33.524Z,2.23
2019-01-21T17:43:01.905Z,2.25
2019-01-21T17:45:30.296Z,2.31
2019-01-21T17:47:58.670Z,2.31
2019-01-21T17:50:27.059Z,2.20
2019-01-21T17:52:55.445Z,2.19
2019-01-21T17:55:23.840Z,2.01
2019-01-21T17:57:52.219Z,2.02
2019-01-21T18:00:22.461Z,1.84
2019-01-21T18:02:50.844Z,1.81
2019-01-21T18:05:19.236Z,1.63
2019-01-21T18:07:47.612Z,1.49
2019-01-21T18:10:18.137Z,1.48
2019-01-21T18:12:46.518Z,1.58
2019-01-21T18:15:15.349Z,1.65
2019-01-21T18:17:43.737Z,1.46
2019-01-21T18:20:15.469Z,1.40
2019-01-21T18:22:43.851Z,1.46
2019-01-21T18:25:12.881Z,1.51
2019-01-21T18:27:41.329Z,1.35
2019-01-21T18:30:15.532Z,1.39
2019-01-21T18:32:43.905Z,1.23
2019-01-21T18:35:13.436Z,1.17
2019-01-21T18:37:41.979Z,1.18
2019-01-21T18:40:13.609Z,1.18
2019-01-21T18:42:42.052Z,1.08
2019-01-21T18:45:13.414Z,0.96
2019-01-21T18:47:41.793Z,1.06
2019-01-21T18:50:11.519Z,0.86
2019-01-21T18:52:39.895Z,0.88
2019-01-21T18:55:09.629Z,0.85
2019-01-21T18:57:38.168Z,0.83
2019-01-21T19:00:15.472Z,0.77
2019-01-21T19:02:43.855Z,0.80
2019-01-21T19:05:12.380Z,0.83
2019-01-21T19:07:40.755Z,0.96
2019-01-21T19:10:11.922Z,0.91
2019-01-21T19:12:40.307Z,0.95
2019-01-21T19:15:17.917Z,0.91
2019-01-21T19:17:46.364Z,1.05
2019-01-21T19:20:15.997Z,0.99
2019-01-21T19:22:44.379Z,0.97
2019-01-21T19:25:13.045Z,0.97
2019-01-21T19:27:41.423Z,0.90
2019-01-21T19:30:15.429Z,0.92
2019-01-21T19:32:43.792Z,0.94
2019-01-21T19:35:21.242Z,0.93
2019-01-21T19:37:49.630Z,1.02
2019-01-21T19:40:20.159Z,1.04
2019-01-21T19:42:48.971Z,1.10
2019-01-21T19:45:17.803Z,1.03
2019-01-21T19:47:46.194Z,0.99
2019-01-21T19:50:17.631Z,1.00
2019-01-21T19:52:46.023Z,0.92
2019-01-21T19:55:17.788Z,0.84
2019-01-21T19:57:46.170Z,0.90
2019-01-21T20:00:20.249Z,0.69
2019-01-21T20:02:48.707Z,0.63
2019-01-21T20:05:17.281Z,0.53
2019-01-21T20:07:46.019Z,0.45
2019-01-21T20:10:22.702Z,0.46
2019-01-21T20:12:51.159Z,0.44
2019-01-21T20:15:19.602Z,0.46
2019-01-21T20:17:48.136Z,0.47
2019-01-21T20:20:19.592Z,0.43
2019-01-21T20:22:47.985Z,0.40
2019-01-21T20:25:16.538Z,0.40
2019-01-21T20:27:44.920Z,0.33
2019-01-21T20:30:18.854Z,0.39
2019-01-21T20:32:47.253Z,0.31
2019-01-21T20:35:15.798Z,0.33
2019-01-21T20:37:44.239Z,0.29
2019-01-21T20:40:15.871Z,0.21
2019-01-21T20:42:44.263Z,0.26
2019-01-21T20:45:14.593Z,0.06
2019-01-21T20:47:43.063Z,0.15
2019-01-21T20:50:14.501Z,0.21
2019-01-21T20:52:42.896Z,0.27
2019-01-21T20:55:12.444Z,0.42
2019-01-21T20:57:40.840Z,0.47
2019-01-21T21:00:15.354Z,0.58
2019-01-21T21:02:43.743Z,0.60
2019-01-21T21:05:12.186Z,0.56
2019-01-21T21:07:40.581Z,0.56
2019-01-21T21:10:11.327Z,0.51
2019-01-21T21:12:39.716Z,0.51
2019-01-21T21:15:13.894Z,0.59
2019-01-21T21:17:42.296Z,0.45
2019-01-21T21:20:12.522Z,0.50
2019-01-21T21:22:40.990Z,0.48
2019-01-21T21:25:12.439Z,0.46
2019-01-21T21:27:41.190Z,0.36
2019-01-21T21:30:16.060Z,0.29
2019-01-21T21:32:44.452Z,0.33
2019-01-21T21:35:12.979Z,0.38
2019-01-21T21:37:41.554Z,0.24
2019-01-21T21:40:12.731Z,0.25
2019-01-21T21:42:41.176Z,0.23
2019-01-21T21:45:21.711Z,0.24
2019-01-21T21:47:50.483Z,0.23
2019-01-21T21:50:30.458Z,0.18
2019-01-21T21:52:58.972Z,0.21
2019-01-21T21:55:27.386Z,0.26
2019-01-21T21:57:55.767Z,0.29
2019-01-21T22:00:26.853Z,0.33
2019-01-21T22:02:55.248Z,0.39
2019-01-21T22:05:23.699Z,0.31
2019-01-21T22:07:52.084Z,0.34
2019-01-21T22:10:25.524Z,0.27
2019-01-21T22:12:53.907Z,0.30
2019-01-21T22:15:23.922Z,0.35
2019-01-21T22:17:52.311Z,0.43
2019-01-21T22:20:22.387Z,0.49
2019-01-21T22:22:50.772Z,0.52
2019-01-21T22:25:19.723Z,0.57
2019-01-21T22:27:48.285Z,0.33
2019-01-21T22:30:19.344Z,0.28
2019-01-21T22:32:47.801Z,0.36
2019-01-21T22:35:16.184Z,0.31
2019-01-21T22:37:45.009Z,0.27
2019-01-21T22:40:15.643Z,0.29
2019-01-21T22:42:44.018Z,0.16
2019-01-21T22:45:13.855Z,-0.01
2019-01-21T22:47:42.238Z,-0.03
2019-01-21T22:50:52.275Z,-0.11
2019-01-21T22:53:20.667Z,-0.13
2019-01-21T22:58:55.701Z,0.06
2019-01-21T23:02:03.989Z,0.17
2019-01-21T23:04:51.493Z,0.03
2019-01-21T23:07:39.121Z,-0.16
2019-01-21T23:10:27.645Z,-0.12
2019-01-21T23:15:45.353Z,-0.04
2019-01-21T23:18:32.906Z,-0.05
2019-01-21T23:23:35.069Z,-0.11
2019-01-21T23:26:22.705Z,-0.10
2019-01-21T23:29:10.545Z,0.03
2019-01-21T23:31:39.074Z,-0.01
2019-01-21T23:34:26.729Z,0.02
2019-01-21T23:45:51.278Z,0.58
2019-01-21T23:48:38.909Z,0.51
2019-01-21T23:51:26.418Z,0.63
2019-01-21T23:53:54.843Z,0.69
2019-01-21T23:56:23.304Z,0.78
2019-01-21T23:59:11.095Z,0.74
